Nico Rodriguez

Chefscout - Lugano
23 Okt 2027
Samstag
Verarbeitung

Persönlichkeit

Anpassungsfähigkeit (17) Ehrgeiz (2) Kontroverse (3) Loyalität (4) Druck (19) Professionalität (4) Fairness (15) Temperament (7)

Profil

Trainerstil Demokratisch
Lizenz Kontinentale C
Entschlossenheit 8
Menschenführung 12
Motivation 7
Disziplin 9
Arbeitszufriedenheit
100%
Ermüdung
0%
Rolle Chefscout
Gehalt 77.6K p/W
Vertrag 14.03.2028

Leistung

Verhalten Gut
Trainingseffektivität
35%
Spielerentwicklung
30%
Verletzungsprävention
50%
Taktische Umsetzung
20%

Letzte Ereignisse

Nahm an einer Scouting-Besprechung teil jetzt
Nahm an einer Scouting-Besprechung teil 7T her
Empfahl ein Transferziel 7T her
Empfahl ein Transferziel 7T her
Spiel beobachtet 7T her
Empfahl ein Transferziel 14T her
Empfahl ein Transferziel 14T her
Spiel beobachtet 14T her

Aktuell beobachtet

96
Spieler Verein Status Fähigkeit Vertrauen Beobachtet Zuletzt beobachtet Letzte Stimme
Oliver Fischer Borussia Dortmund Aktiv 94 / 93 40% 1 26.07.2027 -
Christos Mouzakitis Hull City Aktiv 139 / 147 40% 4 20.07.2027 -
Mattia Rutigliano Pro Vercelli Aktiv 92 / 107 40% 1 20.07.2027 -
Tim Schnitzer FC Augsburg Aktiv 104 / 101 40% 1 12.07.2027 -
Jobe Bellingham Borussia Dortmund Aktiv 150 / 135 40% 1 12.07.2027 -
Patrick Berg Borussia Mönchengladbach Aktiv 141 / 141 62% 1 01.06.2027 Befürworten
Caio Vidal FC Copenhagen Verhandlung 128 / 129 63% 1 01.06.2027 -
Sascha Britschgi Catanzaro Aktiv 125 / 119 40% 1 31.05.2027 -
Riley Owen Wycombe Wanderers Aktiv 105 / 100 40% 1 29.05.2027 -
Caleb Yirenkyi Coventry City Aktiv 133 / 151 40% 1 29.05.2027 -
Karim Coulibaly RC Strasbourg Aktiv 127 / 119 40% 2 27.05.2027 -
Sam Curtis Swindon Town Aktiv 112 / 108 40% 1 27.05.2027 -
Tiago Freitas Benfica Aktiv 103 / 121 40% 1 26.05.2027 -
Davide Bartesaghi AC Milan Aktiv 121 / 134 40% 1 23.05.2027 -
Leandro Martins Benfica Aktiv 93 / 104 40% 1 23.05.2027 -
Fayssal Harchaoui Köln Aktiv 95 / 108 40% 2 20.05.2027 -
Andrik Markgraf Union Berlin Aktiv 107 / 104 40% 1 18.05.2027 -
Noël Aséko Eintracht Frankfurt Aktiv 115 / 132 40% 2 17.05.2027 -
Joane Gadou Köln Aktiv 132 / 131 40% 2 17.05.2027 -
Leonardo Mendicino Bari Aktiv 111 / 124 40% 3 16.05.2027 -
Jonathan De Irastorza Levante Aktiv 120 / 123 40% 1 15.05.2027 -
Taras Mykhavko Dynamo Kyiv Aktiv 120 / 122 40% 2 13.05.2027 -
Abraham Paintsil Hasaacas Aktiv 69 / 82 40% 2 13.05.2027 -
Martin Wober Mattersburg Aktiv 92 / 116 40% 1 12.05.2027 -
Fabio Chiarodia Borussia Mönchengladbach Aktiv 127 / 118 40% 2 11.05.2027 -
Pietro Reggiori Pro Patria Aktiv 88 / 98 40% 2 03.05.2027 -
Gladson Sulemana Liberty Professionals Aktiv 89 / 93 40% 2 20.04.2027 -
Gonçalo Oliveira Benfica Aktiv 116 / 120 40% 1 20.04.2027 -
Riquelme Thompson-Jones Shrewsbury Town Aktiv 99 / 112 40% 2 19.04.2027 -
Jofre Torrents Ajax Aktiv 133 / 134 40% 1 08.04.2027 -
Cenny Neumann Köln Aktiv 99 / 106 40% 1 07.04.2027 -
Philipp Maybach Hamburger SV Aktiv 116 / 112 40% 1 07.04.2027 -
Lucas Jetten Cambuur Aktiv 106 / 121 40% 1 05.04.2027 -
Daniel Kelly Derby County Aktiv 99 / 113 40% 1 05.04.2027 -
Tyrell Malacia Derby County Aktiv 134 / 134 40% 2 18.01.2027 -
Aleksa Terzić Frosinone Aktiv 128 / 132 40% 1 18.01.2027 -
Anel Ahmedhodžić Burnley Aktiv 134 / 145 40% 1 16.01.2027 -
Serge-Philippe Raux-Yao Rapid Wien Aktiv 115 / 137 40% 1 15.01.2027 -
Christian Krasnodar Aktiv 132 / 148 40% 3 13.01.2027 -
Bosun Lawal Stoke City Aktiv 131 / 131 40% 2 12.01.2027 -
Bobby Thomas Coventry City Aktiv 137 / 124 40% 1 12.01.2027 -
Tom Krauß Köln Aktiv 120 / 140 40% 1 11.01.2027 -
Japhet Tanganga Sheffield United Aktiv 133 / 127 40% 1 10.01.2027 -
Edoardo Bove Watford Aktiv 143 / 131 40% 1 09.01.2027 -
Odilon Kossounou Atalanta Aktiv 142 / 135 40% 1 07.01.2027 -
Rubens Dinamo Moscow Aktiv 143 / 145 40% 1 07.01.2027 -
Rico Lewis Manchester City Aktiv 152 / 141 40% 1 02.01.2027 -
Thulani Billiat Utrecht Verhandlung 136 / 136 61% 1 01.01.2027 Befürworten
Adrian Dragusin CFR Cluj Verhandlung 141 / 142 63% 1 01.01.2027 -
Mao Hosoya Manchester City Verhandlung 134 / 135 67% 1 01.01.2027 -
Xavier Biscayzacú Sporting CP Aktiv 127 / 130 40% 1 30.12.2026 -
Neco Williams Nottingham Forest Aktiv 134 / 146 40% 1 27.12.2026 -
Finn Azaz Southampton Aktiv 142 / 116 40% 1 26.12.2026 -
Julian von Moos Grasshopper Aktiv 132 / 128 40% 1 26.12.2026 -
Joe Gelhardt Hull City Aktiv 125 / 122 40% 1 25.12.2026 -
Jovon Makama Norwich City Aktiv 135 / 131 40% 1 25.12.2026 -
Tobias Gulliksen Rapid Wien Aktiv 131 / 122 40% 3 24.12.2026 -
Max Johnston Derby County Aktiv 122 / 123 40% 2 23.12.2026 -
Maurits Kjærgaard Red Bull Salzburg Aktiv 137 / 129 40% 1 17.12.2026 -
Juan-José Perea Zurich Aktiv 113 / 133 40% 1 16.12.2026 -
Jack Rudoni Coventry City Aktiv 139 / 122 40% 1 16.12.2026 -
Alex Luna Instituto Aktiv 119 / 131 40% 1 14.12.2026 -
Relebohile Mofokeng Orlando Pirates Aktiv 107 / 131 40% 1 14.12.2026 -
Loum Tchaouna Coventry City Aktiv 144 / 134 40% 1 13.12.2026 -
Tommy Conway Middlesbrough Aktiv 143 / 134 40% 1 13.12.2026 -
Rodrigo Ribeiro Werder Bremen Aktiv 120 / 138 40% 1 13.12.2026 -
Aljoscha Kemlein Union Berlin Aktiv 114 / 141 40% 2 11.12.2026 -
Zeki Amdouni Burnley Aktiv 144 / 119 40% 2 08.12.2026 -
Antonio Verinac St. Gallen Aktiv 89 / 107 40% 1 07.12.2026 -
Donat Rrudhani Sion Aktiv 106 / 106 40% 2 05.12.2026 -
Claudy M'Buyi Rapid Wien Aktiv 126 / 124 40% 2 03.12.2026 -
Alessio Zerbin Frosinone Aktiv 143 / 126 40% 1 03.12.2026 -
Lee Tae-Suk Austria Wien Aktiv 122 / 121 40% 1 02.12.2026 -
Franck Surdez Sion Aktiv 116 / 119 40% 1 24.11.2026 -
Nils Reichmuth Thun Aktiv 122 / 129 40% 1 23.11.2026 -
Fraser Murray Wigan Athletic Aktiv 117 / 121 40% 1 23.11.2026 -
Mika Walther RB Leipzig Aktiv 94 / 96 40% 1 22.11.2026 -
Philipp Schulz Mainz 05 Aktiv 108 / 91 40% 1 22.11.2026 -
El Hadji Malick Diouf Brentford Aktiv 141 / 150 40% 1 19.11.2026 -
Reda Khadra Qarabag Aktiv 153 / 116 40% 1 11.11.2026 -
Philip Otele Basel Aktiv 118 / 121 40% 1 09.11.2026 -
Max Finkgräfe RB Leipzig Aktiv 132 / 125 40% 1 08.11.2026 -
Philippe Keny Zurich Aktiv 108 / 117 48% 2 06.11.2026 -
Bendegúz Bolla Rapid Wien Aktiv 135 / 136 40% 1 06.11.2026 -
Jordy Makengo SC Freiburg Aktiv 118 / 121 40% 1 04.11.2026 -
Matthias Seidl Rapid Wien Aktiv 113 / 135 40% 2 02.11.2026 -
Alan Virginius Young Boys Aktiv 124 / 129 40% 1 02.11.2026 -
Gabriel Pirani San Diego Football Club Aktiv 121 / 124 40% 1 19.10.2026 -
Camilo Durán Bloemfontein Celtic Aktiv 131 / 120 40% 1 14.10.2026 -
Kelvin Yeboah Minnesota United FC Aktiv 105 / 137 40% 1 13.10.2026 -
Baltazar Sion Aktiv 113 / 105 40% 1 08.10.2026 -
Joaquín Pereyra Minnesota United FC Aktiv 151 / 124 40% 1 08.10.2026 -
Philipp Alaba Austria Wien Aktiv 126 / 124 40% 1 06.10.2026 -
Frans Krätzig Red Bull Salzburg Aktiv 114 / 121 40% 1 06.10.2026 -
Bledian Krasniqi Zurich Aktiv 128 / 129 40% 1 05.10.2026 -
Théo Berdayes Sion Aktiv 100 / 120 48% 1 24.08.2026 -